createdAt,value
2017-08-29T00:01:02.863Z,19.97
2017-08-29T00:03:29.159Z,18.27
2017-08-29T00:05:55.473Z,20.07
2017-08-29T00:08:21.768Z,19.53
2017-08-29T00:10:48.048Z,17.20
2017-08-29T00:13:14.371Z,19.60
2017-08-29T00:15:40.630Z,20.33
2017-08-29T00:18:06.927Z,22.97
2017-08-29T00:20:33.189Z,20.80
2017-08-29T00:22:59.884Z,19.50
2017-08-29T00:25:26.142Z,18.57
2017-08-29T00:27:52.432Z,20.17
2017-08-29T00:30:18.766Z,18.60
2017-08-29T00:32:45.046Z,19.10
2017-08-29T00:35:11.346Z,22.43
2017-08-29T00:37:37.675Z,22.10
2017-08-29T00:40:03.984Z,21.93
2017-08-29T00:42:30.290Z,20.80
2017-08-29T00:44:56.630Z,19.00
2017-08-29T00:47:22.954Z,20.40
2017-08-29T00:49:49.255Z,19.40
2017-08-29T00:52:15.568Z,18.97
2017-08-29T00:54:41.871Z,19.17
2017-08-29T00:57:08.206Z,19.77
2017-08-29T00:59:34.508Z,18.40
2017-08-29T01:02:00.788Z,18.10
2017-08-29T01:04:27.109Z,16.67
2017-08-29T01:06:53.422Z,16.93
2017-08-29T01:09:19.707Z,16.70
2017-08-29T01:11:46.020Z,17.57
2017-08-29T01:14:12.333Z,16.97
2017-08-29T01:16:38.621Z,16.20
2017-08-29T01:19:04.941Z,18.13
2017-08-29T01:21:31.237Z,17.50
2017-08-29T01:23:57.565Z,18.73
2017-08-29T01:26:24.438Z,17.93
2017-08-29T01:28:51.109Z,16.80
2017-08-29T01:31:17.414Z,18.97
2017-08-29T01:33:43.734Z,16.90
2017-08-29T01:36:10.062Z,16.90
2017-08-29T01:38:36.372Z,16.80
2017-08-29T01:41:02.700Z,17.87
2017-08-29T01:43:29.006Z,19.97
2017-08-29T01:45:55.362Z,19.07
2017-08-29T01:48:21.671Z,21.67
2017-08-29T01:50:48.003Z,19.80
2017-08-29T01:53:14.318Z,18.80
2017-08-29T01:55:40.649Z,19.60
2017-08-29T01:58:06.973Z,20.17
2017-08-29T02:00:33.261Z,19.93
2017-08-29T02:02:59.569Z,20.17
2017-08-29T02:05:25.893Z,22.07
2017-08-29T02:07:52.231Z,21.13
2017-08-29T02:10:18.549Z,19.43
2017-08-29T02:12:44.874Z,20.67
2017-08-29T02:15:11.155Z,19.90
2017-08-29T02:17:37.460Z,21.30
2017-08-29T02:20:03.744Z,21.20
2017-08-29T02:22:30.036Z,19.03
2017-08-29T02:24:56.354Z,18.80
2017-08-29T02:27:22.648Z,17.90
2017-08-29T02:29:48.949Z,17.50
2017-08-29T02:32:15.210Z,17.50
2017-08-29T02:34:41.521Z,17.50
2017-08-29T02:37:07.805Z,19.20
2017-08-29T02:39:34.071Z,18.33
2017-08-29T02:42:00.325Z,18.43
2017-08-29T02:44:26.642Z,18.43
2017-08-29T02:46:52.924Z,19.37
2017-08-29T02:49:19.194Z,21.20
2017-08-29T02:51:45.469Z,19.83
2017-08-29T02:54:11.744Z,18.67
2017-08-29T02:56:38.046Z,20.27
2017-08-29T02:59:04.317Z,19.93
2017-08-29T03:01:30.615Z,21.55
2017-08-29T03:03:56.893Z,18.53
2017-08-29T03:06:23.204Z,20.00
2017-08-29T03:08:49.488Z,21.37
2017-08-29T03:11:15.797Z,21.20
2017-08-29T03:13:42.078Z,18.52
2017-08-29T03:16:08.390Z,18.87
2017-08-29T03:18:34.682Z,20.00
2017-08-29T03:21:00.948Z,18.10
2017-08-29T03:23:27.248Z,19.15
2017-08-29T03:25:53.816Z,18.48
2017-08-29T03:28:20.067Z,16.20
2017-08-29T03:30:46.339Z,19.50
2017-08-29T03:33:12.623Z,19.87
2017-08-29T03:35:38.886Z,18.67
2017-08-29T03:38:05.190Z,19.17
2017-08-29T03:40:31.491Z,19.70
2017-08-29T03:42:57.753Z,20.77
2017-08-29T03:45:24.058Z,20.50
2017-08-29T03:47:50.324Z,18.73
2017-08-29T03:50:16.601Z,20.23
2017-08-29T03:52:42.884Z,18.25
2017-08-29T03:55:09.183Z,18.10
2017-08-29T03:57:35.465Z,19.62
2017-08-29T04:00:01.798Z,20.37
2017-08-29T04:02:28.088Z,19.50
2017-08-29T04:04:54.364Z,17.20
2017-08-29T04:07:20.653Z,19.12
2017-08-29T04:09:46.947Z,19.12
2017-08-29T04:12:13.250Z,19.30
2017-08-29T04:14:39.508Z,19.80
2017-08-29T04:17:05.815Z,18.43
2017-08-29T04:19:33.039Z,18.58
2017-08-29T04:21:59.351Z,19.62
2017-08-29T04:24:25.650Z,19.67
2017-08-29T04:26:51.927Z,18.08
2017-08-29T04:29:18.225Z,20.27
2017-08-29T04:31:44.499Z,19.92
2017-08-29T04:34:10.802Z,20.60
2017-08-29T04:36:37.080Z,20.70
2017-08-29T04:39:03.393Z,21.80
2017-08-29T04:41:29.713Z,20.70
2017-08-29T04:43:55.985Z,19.75
2017-08-29T04:46:22.272Z,20.67
2017-08-29T04:48:48.546Z,21.02
2017-08-29T04:51:14.873Z,20.90
2017-08-29T04:53:41.143Z,20.25
2017-08-29T04:56:07.494Z,21.73
2017-08-29T04:58:33.767Z,22.42
2017-08-29T05:01:00.080Z,24.27
2017-08-29T05:03:26.429Z,23.87
2017-08-29T05:05:52.760Z,22.37
2017-08-29T05:08:19.089Z,20.80
2017-08-29T05:10:45.394Z,19.53
2017-08-29T05:13:11.679Z,21.05
2017-08-29T05:15:37.934Z,21.95
2017-08-29T05:18:04.222Z,22.30
2017-08-29T05:20:30.501Z,22.00
2017-08-29T05:22:56.790Z,20.73
2017-08-29T05:25:23.091Z,23.27
2017-08-29T05:27:49.377Z,21.70
2017-08-29T05:30:15.689Z,22.30
2017-08-29T05:32:41.962Z,23.10
2017-08-29T05:35:08.262Z,24.12
2017-08-29T05:37:34.527Z,21.33
2017-08-29T05:40:00.842Z,23.08
2017-08-29T05:42:27.140Z,23.77
2017-08-29T05:44:53.400Z,24.10
2017-08-29T05:47:19.699Z,23.48
2017-08-29T05:49:45.957Z,25.12
2017-08-29T05:52:12.277Z,24.15
2017-08-29T05:54:38.556Z,25.70
2017-08-29T05:57:04.863Z,25.63
2017-08-29T05:59:31.174Z,23.20
2017-08-29T06:01:57.453Z,26.90
2017-08-29T06:04:23.786Z,24.90
2017-08-29T06:06:50.050Z,24.73
2017-08-29T06:09:16.358Z,26.97
2017-08-29T06:11:42.633Z,25.80
2017-08-29T06:14:08.942Z,27.57
2017-08-29T06:16:35.234Z,25.57
2017-08-29T06:19:01.513Z,25.83
2017-08-29T06:21:27.819Z,25.07
2017-08-29T06:23:54.083Z,26.50
2017-08-29T06:26:20.371Z,26.83
2017-08-29T06:28:46.664Z,27.70
2017-08-29T06:31:12.953Z,26.53
2017-08-29T06:33:39.230Z,27.00
2017-08-29T06:36:05.523Z,26.97
2017-08-29T06:38:31.808Z,26.50
2017-08-29T06:40:58.065Z,29.33
2017-08-29T06:43:24.370Z,31.03
2017-08-29T06:45:50.651Z,30.97
2017-08-29T06:48:16.937Z,30.20
2017-08-29T06:50:43.233Z,32.40
2017-08-29T06:53:09.547Z,30.83
2017-08-29T06:55:35.804Z,27.53
2017-08-29T06:58:02.062Z,30.67
2017-08-29T07:00:28.349Z,29.77
2017-08-29T07:02:54.603Z,32.50
2017-08-29T07:05:20.953Z,33.10
2017-08-29T07:07:47.231Z,35.87
2017-08-29T07:10:13.513Z,37.40
2017-08-29T07:12:39.828Z,36.10
2017-08-29T07:15:06.146Z,36.50
2017-08-29T07:17:32.444Z,35.47
2017-08-29T07:19:58.737Z,35.57
2017-08-29T07:22:25.034Z,32.17
2017-08-29T07:24:51.358Z,34.83
2017-08-29T07:27:17.677Z,35.10
2017-08-29T07:29:43.951Z,34.97
2017-08-29T07:32:10.237Z,34.50
2017-08-29T07:34:36.513Z,33.90
2017-08-29T07:37:02.829Z,34.63
2017-08-29T07:39:29.114Z,36.60
2017-08-29T07:41:55.435Z,36.93
2017-08-29T07:44:21.745Z,35.33
2017-08-29T07:46:48.034Z,37.17
2017-08-29T07:49:14.339Z,34.50
2017-08-29T07:51:40.631Z,35.13
2017-08-29T07:54:06.934Z,37.13
2017-08-29T07:56:33.202Z,34.67
2017-08-29T07:58:59.488Z,33.13
2017-08-29T08:01:25.776Z,34.47
2017-08-29T08:03:52.065Z,32.43
2017-08-29T08:06:18.393Z,33.37
2017-08-29T08:08:44.729Z,33.37
2017-08-29T08:11:11.045Z,34.53
2017-08-29T08:13:37.376Z,34.67
2017-08-29T08:16:03.710Z,37.10
2017-08-29T08:18:29.985Z,35.40
2017-08-29T08:20:56.303Z,35.43
2017-08-29T08:23:22.584Z,32.87
2017-08-29T08:25:48.897Z,32.63
2017-08-29T08:28:15.206Z,33.63
2017-08-29T08:30:41.507Z,33.20
2017-08-29T08:33:07.792Z,31.23
2017-08-29T08:35:34.112Z,32.33
2017-08-29T08:38:00.418Z,30.17
2017-08-29T08:40:26.693Z,32.27
2017-08-29T08:42:52.968Z,30.80
2017-08-29T08:45:19.264Z,29.37
2017-08-29T08:47:45.563Z,30.80
2017-08-29T08:50:11.857Z,28.33
2017-08-29T08:52:38.150Z,29.83
2017-08-29T08:55:04.432Z,31.27
2017-08-29T08:57:30.777Z,29.10
2017-08-29T08:59:57.066Z,28.90
2017-08-29T09:02:23.364Z,28.60
2017-08-29T09:04:49.694Z,28.43
2017-08-29T09:07:15.981Z,28.13
2017-08-29T09:09:42.259Z,26.17
2017-08-29T09:12:08.542Z,29.07
2017-08-29T09:14:34.801Z,26.57
2017-08-29T09:17:01.076Z,27.40
2017-08-29T09:19:27.372Z,26.73
2017-08-29T09:21:53.674Z,26.23
2017-08-29T09:24:19.962Z,25.93
2017-08-29T09:26:46.241Z,26.30
2017-08-29T09:29:12.505Z,24.27
2017-08-29T09:31:38.798Z,23.17
2017-08-29T09:34:05.108Z,19.43
2017-08-29T09:36:31.401Z,20.83
2017-08-29T09:38:57.680Z,21.50
2017-08-29T09:41:23.969Z,21.30
2017-08-29T09:43:50.281Z,22.63
2017-08-29T09:46:16.596Z,22.40
2017-08-29T09:48:42.906Z,21.10
2017-08-29T09:51:09.207Z,20.90
2017-08-29T09:53:35.527Z,19.90
2017-08-29T09:56:01.847Z,20.40
2017-08-29T09:58:28.175Z,20.17
2017-08-29T10:00:54.476Z,20.07
2017-08-29T10:03:20.759Z,18.80
2017-08-29T10:05:47.034Z,20.40
2017-08-29T10:08:13.368Z,22.20
2017-08-29T10:10:39.635Z,20.67
2017-08-29T10:13:05.933Z,20.30
2017-08-29T10:15:32.254Z,19.43
2017-08-29T10:17:58.559Z,18.80
2017-08-29T10:20:24.890Z,21.20
2017-08-29T10:22:51.169Z,19.10
2017-08-29T10:25:17.449Z,19.13
2017-08-29T10:27:43.713Z,18.53
2017-08-29T10:30:10.335Z,18.70
2017-08-29T10:32:36.658Z,19.73
2017-08-29T10:35:02.962Z,17.30
2017-08-29T10:37:29.278Z,15.37
2017-08-29T10:39:55.557Z,15.60
2017-08-29T10:42:21.863Z,15.97
2017-08-29T10:44:48.180Z,16.80
2017-08-29T10:47:14.464Z,15.43
2017-08-29T10:49:40.752Z,14.00
2017-08-29T10:52:07.332Z,14.10
2017-08-29T10:54:34.613Z,12.23
2017-08-29T10:57:00.902Z,13.50
2017-08-29T10:59:27.199Z,11.53
2017-08-29T11:01:54.338Z,10.93
2017-08-29T11:04:20.679Z,11.13
2017-08-29T11:06:46.963Z,10.60
2017-08-29T11:09:13.285Z,11.70
2017-08-29T11:11:39.568Z,10.27
2017-08-29T11:14:05.867Z,9.30
2017-08-29T11:16:32.168Z,10.17
2017-08-29T11:18:58.443Z,10.03
2017-08-29T11:21:24.783Z,8.63
2017-08-29T11:23:51.073Z,8.57
2017-08-29T11:26:17.386Z,9.17
2017-08-29T11:28:43.681Z,8.93
2017-08-29T11:31:10.005Z,9.70
2017-08-29T11:33:36.322Z,8.30
2017-08-29T11:36:02.653Z,8.73
2017-08-29T11:38:28.934Z,8.80
2017-08-29T11:40:55.267Z,7.53
2017-08-29T11:43:21.586Z,7.60
2017-08-29T11:45:47.903Z,7.07
2017-08-29T11:48:14.288Z,7.30
2017-08-29T11:50:40.613Z,6.67
2017-08-29T11:53:06.949Z,7.13
2017-08-29T11:55:33.275Z,6.53
2017-08-29T11:57:59.668Z,6.23
2017-08-29T12:00:25.986Z,6.40
2017-08-29T12:02:52.363Z,6.10
2017-08-29T12:05:18.691Z,6.63
2017-08-29T12:07:45.020Z,7.00
2017-08-29T12:10:11.341Z,9.03
2017-08-29T12:12:37.633Z,6.87
2017-08-29T12:15:03.938Z,6.70
2017-08-29T12:17:30.258Z,6.57
2017-08-29T12:19:56.562Z,6.07
2017-08-29T12:22:22.846Z,6.40
2017-08-29T12:24:49.121Z,6.57
2017-08-29T12:27:15.416Z,6.15
2017-08-29T12:29:41.708Z,6.78
2017-08-29T12:32:07.976Z,7.43
2017-08-29T12:34:34.280Z,5.72
2017-08-29T12:37:00.575Z,7.57
2017-08-29T12:39:26.820Z,6.40
2017-08-29T12:41:53.136Z,6.60
2017-08-29T12:44:19.465Z,6.97
2017-08-29T12:46:45.770Z,7.00
2017-08-29T12:49:12.040Z,6.85
2017-08-29T12:51:38.364Z,6.37
2017-08-29T12:54:04.656Z,7.65
2017-08-29T12:56:30.978Z,6.87
2017-08-29T12:58:57.290Z,7.32
2017-08-29T13:01:23.583Z,7.30
2017-08-29T13:03:49.876Z,7.20
2017-08-29T13:06:16.175Z,6.65
2017-08-29T13:08:42.775Z,7.37
2017-08-29T13:11:09.087Z,6.78
2017-08-29T13:13:35.416Z,8.00
2017-08-29T13:16:01.710Z,6.93
2017-08-29T13:18:27.990Z,7.05
2017-08-29T13:20:54.321Z,7.25
2017-08-29T13:23:20.624Z,7.12
2017-08-29T13:25:46.937Z,6.90
2017-08-29T13:28:13.233Z,7.53
2017-08-29T13:30:39.542Z,7.43
2017-08-29T13:33:05.887Z,7.53
2017-08-29T13:35:32.192Z,7.30
2017-08-29T13:37:58.507Z,7.50
2017-08-29T13:40:24.802Z,7.70
2017-08-29T13:42:51.101Z,7.85
2017-08-29T13:45:17.402Z,7.43
2017-08-29T13:47:43.721Z,7.37
2017-08-29T13:50:10.013Z,7.32
2017-08-29T13:52:36.332Z,7.85
2017-08-29T13:55:02.592Z,7.32
2017-08-29T13:57:28.882Z,7.95
2017-08-29T13:59:55.181Z,7.40
2017-08-29T14:02:21.529Z,7.62
2017-08-29T14:04:47.858Z,7.87
2017-08-29T14:07:14.105Z,8.52
2017-08-29T14:09:40.386Z,7.65
2017-08-29T14:12:06.645Z,7.53
2017-08-29T14:14:32.963Z,7.20
2017-08-29T14:16:59.269Z,6.47
2017-08-29T14:19:25.567Z,7.50
2017-08-29T14:21:51.870Z,7.43
2017-08-29T14:24:18.171Z,6.75
2017-08-29T14:26:44.471Z,7.20
2017-08-29T14:29:10.735Z,7.78
2017-08-29T14:31:37.047Z,6.62
2017-08-29T14:34:03.351Z,6.22
2017-08-29T14:36:29.681Z,6.55
2017-08-29T14:38:55.948Z,6.72
2017-08-29T14:41:23.304Z,8.45
2017-08-29T14:43:49.597Z,6.93
2017-08-29T14:46:15.928Z,7.20
2017-08-29T14:48:54.462Z,6.70
2017-08-29T14:51:20.753Z,6.57
2017-08-29T14:53:47.067Z,7.07
2017-08-29T14:56:13.379Z,7.85
2017-08-29T14:58:39.694Z,7.18
2017-08-29T15:01:05.972Z,6.72
2017-08-29T15:03:32.287Z,7.93
2017-08-29T15:05:58.580Z,8.07
2017-08-29T15:08:24.890Z,7.60
2017-08-29T15:10:51.173Z,7.85
2017-08-29T15:13:17.470Z,7.65
2017-08-29T15:15:43.755Z,7.25
2017-08-29T15:18:10.071Z,7.10
2017-08-29T15:20:36.399Z,7.15
2017-08-29T15:23:02.692Z,6.93
2017-08-29T15:25:28.989Z,7.28
2017-08-29T15:27:55.307Z,7.22
2017-08-29T15:30:21.650Z,8.13
2017-08-29T15:32:47.949Z,7.37
2017-08-29T15:35:14.273Z,6.80
2017-08-29T15:37:40.564Z,7.10
2017-08-29T15:40:06.884Z,7.40
2017-08-29T15:42:33.182Z,7.57
2017-08-29T15:44:59.472Z,7.17
2017-08-29T15:47:25.779Z,7.90
2017-08-29T15:49:52.075Z,7.67
2017-08-29T15:52:18.387Z,7.40
2017-08-29T15:54:44.659Z,7.27
2017-08-29T15:57:10.979Z,6.40
2017-08-29T15:59:37.272Z,6.97
2017-08-29T16:02:03.596Z,7.40
2017-08-29T16:04:29.930Z,7.90
2017-08-29T16:06:56.222Z,6.87
2017-08-29T16:09:22.540Z,6.77
2017-08-29T16:11:48.853Z,7.47
2017-08-29T16:14:15.152Z,6.77
2017-08-29T16:16:41.429Z,7.67
2017-08-29T16:19:07.740Z,8.60
2017-08-29T16:21:34.040Z,9.80
2017-08-29T16:24:00.363Z,8.70
2017-08-29T16:26:26.666Z,7.00
2017-08-29T16:28:52.992Z,7.97
2017-08-29T16:31:19.303Z,7.90
2017-08-29T16:33:45.624Z,7.43
2017-08-29T16:36:11.930Z,8.50
2017-08-29T16:38:38.227Z,8.00
2017-08-29T16:41:04.515Z,7.53
2017-08-29T16:43:30.866Z,7.80
2017-08-29T16:45:57.141Z,8.73
2017-08-29T16:48:23.476Z,7.87
2017-08-29T16:50:49.819Z,7.47
2017-08-29T16:53:16.116Z,7.20
2017-08-29T16:55:42.397Z,7.13
2017-08-29T16:58:08.685Z,6.97
2017-08-29T17:00:35.001Z,7.67
2017-08-29T17:03:01.306Z,6.90
2017-08-29T17:05:27.610Z,7.40
2017-08-29T17:07:53.899Z,7.70
2017-08-29T17:10:20.824Z,8.27
2017-08-29T17:12:47.174Z,7.90
2017-08-29T17:15:13.548Z,8.27
2017-08-29T17:17:39.840Z,8.40
2017-08-29T17:20:06.118Z,8.30
2017-08-29T17:22:32.427Z,6.77
2017-08-29T17:24:58.737Z,8.00
2017-08-29T17:27:25.064Z,8.30
2017-08-29T17:29:51.365Z,7.40
2017-08-29T17:32:17.653Z,8.23
2017-08-29T17:34:43.976Z,8.67
2017-08-29T17:37:10.259Z,7.87
2017-08-29T17:39:36.553Z,8.60
2017-08-29T17:42:02.844Z,8.20
2017-08-29T17:44:29.163Z,7.53
2017-08-29T17:46:55.479Z,7.87
2017-08-29T17:49:21.787Z,8.33
2017-08-29T17:51:48.105Z,9.83
2017-08-29T17:54:14.388Z,8.33
2017-08-29T17:56:40.713Z,8.17
2017-08-29T17:59:07.027Z,8.40
2017-08-29T18:01:33.364Z,8.30
2017-08-29T18:03:59.678Z,8.07
2017-08-29T18:06:26.023Z,7.90
2017-08-29T18:08:53.199Z,8.83
2017-08-29T18:11:19.501Z,7.57
2017-08-29T18:13:45.799Z,8.33
2017-08-29T18:16:12.113Z,8.17
2017-08-29T18:18:38.449Z,8.13
2017-08-29T18:21:05.545Z,8.23
2017-08-29T18:23:32.693Z,8.40
2017-08-29T18:25:58.973Z,8.97
2017-08-29T18:28:25.296Z,8.93
2017-08-29T18:30:51.586Z,8.40
2017-08-29T18:33:17.904Z,8.17
2017-08-29T18:35:44.182Z,7.87
2017-08-29T18:38:10.455Z,8.60
2017-08-29T18:40:37.708Z,9.33
2017-08-29T18:43:04.024Z,8.67
2017-08-29T18:45:31.001Z,9.03
2017-08-29T18:47:57.289Z,8.93
2017-08-29T18:50:23.622Z,9.47
2017-08-29T18:52:50.195Z,8.53
2017-08-29T18:55:16.548Z,9.03
2017-08-29T18:57:42.846Z,9.13
2017-08-29T19:00:09.683Z,9.30
2017-08-29T19:02:37.763Z,8.90
2017-08-29T19:05:04.070Z,8.70
2017-08-29T19:07:31.308Z,9.77
2017-08-29T19:09:57.775Z,9.70
2017-08-29T19:12:24.228Z,9.90
2017-08-29T19:14:50.566Z,9.87
2017-08-29T19:17:16.921Z,9.80
2017-08-29T19:19:44.021Z,11.90
2017-08-29T19:22:10.349Z,11.93
2017-08-29T19:24:36.734Z,9.67
2017-08-29T19:27:03.889Z,10.50
2017-08-29T19:29:30.321Z,11.03
2017-08-29T19:31:56.626Z,11.30
2017-08-29T19:34:23.892Z,11.97
2017-08-29T19:36:50.219Z,12.03
2017-08-29T19:39:16.568Z,11.53
2017-08-29T19:41:42.835Z,10.10
2017-08-29T19:44:09.182Z,11.33
2017-08-29T19:46:36.549Z,12.77
2017-08-29T19:49:02.907Z,10.80
2017-08-29T19:51:29.261Z,12.27
2017-08-29T19:53:55.630Z,12.20
2017-08-29T19:56:22.365Z,11.00
2017-08-29T19:58:48.658Z,12.50
2017-08-29T20:01:15.213Z,12.33
2017-08-29T20:03:41.731Z,11.43
2017-08-29T20:06:08.079Z,12.77
2017-08-29T20:08:34.410Z,12.13
2017-08-29T20:11:00.720Z,12.10
2017-08-29T20:13:27.107Z,11.20
2017-08-29T20:15:53.475Z,11.30
2017-08-29T20:18:19.767Z,12.77
2017-08-29T20:20:47.359Z,12.00
2017-08-29T20:23:13.734Z,11.60
2017-08-29T20:25:41.078Z,11.70
2017-08-29T20:28:07.725Z,12.50
2017-08-29T20:30:34.194Z,12.00
2017-08-29T20:33:00.545Z,12.40
2017-08-29T20:35:26.885Z,12.20
2017-08-29T20:37:53.522Z,13.53
2017-08-29T20:40:19.831Z,13.03
2017-08-29T20:42:46.163Z,13.57
2017-08-29T20:45:12.447Z,12.37
2017-08-29T20:47:38.757Z,13.60
2017-08-29T20:50:05.061Z,12.80
2017-08-29T20:52:31.374Z,13.40
2017-08-29T20:54:57.686Z,12.43
2017-08-29T20:57:24.908Z,11.93
2017-08-29T20:59:51.217Z,13.50
2017-08-29T21:02:18.402Z,12.73
2017-08-29T21:04:44.703Z,11.20
2017-08-29T21:07:11.001Z,11.90
2017-08-29T21:09:39.240Z,11.40
2017-08-29T21:12:05.527Z,13.00
2017-08-29T21:14:31.825Z,12.40
2017-08-29T21:16:58.107Z,12.83
2017-08-29T21:19:24.421Z,12.83
2017-08-29T21:21:50.746Z,13.53
2017-08-29T21:24:17.030Z,14.40
2017-08-29T21:26:43.600Z,13.60
2017-08-29T21:29:09.900Z,13.00
2017-08-29T21:31:36.202Z,14.70
2017-08-29T21:34:02.527Z,14.33
2017-08-29T21:36:28.843Z,14.27
2017-08-29T21:38:55.121Z,13.87
2017-08-29T21:41:21.456Z,14.73
2017-08-29T21:43:48.370Z,13.03
2017-08-29T21:46:15.519Z,12.90
2017-08-29T21:48:43.336Z,14.20
2017-08-29T21:51:10.891Z,13.80
2017-08-29T21:53:37.191Z,13.43
2017-08-29T21:56:04.439Z,12.10
2017-08-29T21:58:35.955Z,11.97
2017-08-29T22:01:02.277Z,12.93
2017-08-29T22:03:28.617Z,13.37
2017-08-29T22:05:54.889Z,12.93
2017-08-29T22:08:21.188Z,11.90
2017-08-29T22:10:47.475Z,12.13
2017-08-29T22:13:13.773Z,14.10
2017-08-29T22:15:40.071Z,13.07
2017-08-29T22:18:07.345Z,13.80
2017-08-29T22:20:34.183Z,13.47
2017-08-29T22:23:00.445Z,13.83
2017-08-29T22:25:27.425Z,12.50
2017-08-29T22:27:54.664Z,12.90
2017-08-29T22:30:20.977Z,12.90
2017-08-29T22:32:47.279Z,13.43
2017-08-29T22:35:14.498Z,13.87
2017-08-29T22:37:42.321Z,14.80
2017-08-29T22:40:08.716Z,13.93
2017-08-29T22:42:34.998Z,13.80
2017-08-29T22:45:01.294Z,14.50
2017-08-29T22:47:27.596Z,14.47
2017-08-29T22:49:53.868Z,12.60
2017-08-29T22:52:20.166Z,14.00
2017-08-29T22:54:47.267Z,14.43
2017-08-29T22:57:13.568Z,14.50
2017-08-29T22:59:39.847Z,13.67
2017-08-29T23:02:06.166Z,13.53
2017-08-29T23:04:32.460Z,14.13
2017-08-29T23:06:58.751Z,14.00
2017-08-29T23:09:25.043Z,14.93
2017-08-29T23:11:51.351Z,13.17
2017-08-29T23:14:17.614Z,14.07
2017-08-29T23:16:44.153Z,14.40
2017-08-29T23:19:10.453Z,14.10
2017-08-29T23:21:36.758Z,13.93
2017-08-29T23:24:03.071Z,13.73
2017-08-29T23:26:29.366Z,14.00
2017-08-29T23:28:55.713Z,13.70
2017-08-29T23:31:22.000Z,12.30
2017-08-29T23:33:48.323Z,13.20
2017-08-29T23:36:14.600Z,14.37
2017-08-29T23:38:40.927Z,14.20
2017-08-29T23:41:07.213Z,14.97
2017-08-29T23:43:34.051Z,15.30
2017-08-29T23:46:00.343Z,14.43
2017-08-29T23:48:26.638Z,15.10
2017-08-29T23:50:52.925Z,15.00
2017-08-29T23:53:19.205Z,15.20
2017-08-29T23:55:45.494Z,15.77
2017-08-29T23:58:11.788Z,15.67
